Harbor Emperor — WCY6430 — position and weather

sailwx.info

Track history (hours):
 
Tides and Currents Weather Stations Pressure Air Temp Water Temp Dewpoint Dewpoint Depression Visibility Wind Speed Wind Dir Waves Ship Positions

Harbor Emperor

Owner: BLUE & GOLD FLEET, SAN FRANCISCO, CA. More information available from US FCC via Universal Licensing System and Coast Guard Vessel Documentation Center.

Last reported at 2017-Jan-21 03:33 UTC. Time now 2017-Jan-21 04:21 UTC.
Position N 37°50' W 122°25'.

Length 31 m.

Type: Passenger vessel. MMSI: 366985270.

Date/timePositionNaut miles runAvg speedWind from/ knotsBaromVisibWave heightAir tempDewpointWater temp
2017-Jan-21 03:33N 37°50' W 122°25'2 2.2
2017-Jan-21 02:33N 37°48' W 122°24'1 1.2
2017-Jan-21 01:33N 37°49' W 122°25'0 0.1
2017-Jan-21 00:33N 37°49' W 122°25'3 2.8
2017-Jan-20 23:33N 37°49' W 122°28'3 2.8
2017-Jan-20 22:33N 37°49' W 122°25'2 2.2
2017-Jan-20 21:33N 37°49' W 122°27'2 2.2
2017-Jan-20 20:33N 37°49' W 122°25'1 0.7
2017-Jan-20 19:34N 37°49' W 122°25'3 2.7
2017-Jan-20 18:33N 37°49' W 122°28'3 3.5
2017-Jan-20 17:33N 37°52' W 122°27'4 4.3
2017-Jan-20 16:33N 37°49' W 122°25'3 0.3
2017-Jan-20 05:34N 37°48' W 122°20'2 1.6
2017-Jan-20 04:33N 37°48' W 122°23'2 2.3
2017-Jan-20 03:33N 37°49' W 122°25'2 1.9
2017-Jan-20 02:33N 37°48' W 122°24'1 1.2
2017-Jan-20 01:33N 37°49' W 122°25'0 0.2
2017-Jan-20 00:34N 37°49' W 122°25'2 2.4
2017-Jan-19 23:34N 37°49' W 122°28'3 2.5
2017-Jan-19 22:33N 37°49' W 122°25'3 2.6
2017-Jan-19 21:33N 37°49' W 122°28'3 3.0
2017-Jan-19 20:34N 37°49' W 122°24'1 0.6
2017-Jan-19 19:34N 37°49' W 122°25'2 2.5
2017-Jan-19 18:34N 37°49' W 122°28'3 3.5
2017-Jan-19 17:33N 37°52' W 122°27'4 4.2
2017-Jan-19 16:34N 37°49' W 122°25'0 0.2
2017-Jan-19 15:33N 37°49' W 122°25'0 0.0
2017-Jan-19 14:33N 37°49' W 122°25'0 0.0
2017-Jan-19 13:33N 37°49' W 122°25'0 0.0
2017-Jan-19 12:33N 37°49' W 122°25'0 0.0
2017-Jan-19 11:33N 37°49' W 122°25'0 0.0
2017-Jan-19 10:33N 37°49' W 122°25'0 0.0
2017-Jan-19 09:33N 37°49' W 122°25'0 0.0
2017-Jan-19 08:33N 37°49' W 122°25'0 0.0
2017-Jan-19 07:33N 37°49' W 122°25'0 0.0
2017-Jan-19 06:33N 37°49' W 122°25'0 0.0
2017-Jan-19 05:33N 37°49' W 122°25'0 0.0
2017-Jan-19 04:33N 37°49' W 122°25'0 0.0
2017-Jan-19 03:33N 37°49' W 122°25'0 0.0
2017-Jan-19 02:33N 37°49' W 122°25'0 0.0
2017-Jan-19 01:33N 37°49' W 122°25'0 0.0
2017-Jan-19 00:33N 37°49' W 122°25'3 2.8
2017-Jan-18 23:33N 37°49' W 122°28'3 2.8
2017-Jan-18 22:33N 37°49' W 122°25'2 2.5
2017-Jan-18 21:33N 37°49' W 122°28'3 3.0
2017-Jan-18 20:33N 37°49' W 122°24'1 0.6
2017-Jan-18 19:34N 37°49' W 122°25'3 2.6
2017-Jan-18 18:33N 37°49' W 122°28'3 3.4
2017-Jan-18 17:33N 37°52' W 122°27'4 4.3
2017-Jan-18 16:33N 37°49' W 122°25'0 0.0
2017-Jan-18 01:30N 37°49' W 122°25'0 0.2
2017-Jan-18 00:33N 37°49' W 122°25'3 2.9
2017-Jan-17 23:33N 37°49' W 122°28'3 3.0
2017-Jan-17 22:33N 37°49' W 122°25'3 2.6
2017-Jan-17 21:33N 37°49' W 122°28'3 3.1
2017-Jan-17 20:33N 37°49' W 122°24'0 0.5
2017-Jan-17 19:34N 37°49' W 122°25'3 2.7
2017-Jan-17 18:33N 37°49' W 122°28'4 3.6
2017-Jan-17 17:33N 37°52' W 122°27'4 4.2
2017-Jan-17 16:33N 37°49' W 122°25'0 0.0
2017-Jan-17 01:31N 37°49' W 122°25'0 0.0
2017-Jan-17 00:34N 37°49' W 122°25'3 2.6
2017-Jan-16 23:33N 37°49' W 122°28'3 2.6
2017-Jan-16 22:33N 37°49' W 122°25'2 2.4
2017-Jan-16 21:33N 37°49' W 122°28'4 3.7
2017-Jan-16 20:33N 37°48' W 122°23'1 1.3
2017-Jan-16 19:33N 37°49' W 122°25'2 2.3
2017-Jan-16 18:33N 37°49' W 122°28'2 2.3
2017-Jan-16 17:32N 37°49' W 122°25'0 0.0
2017-Jan-16 16:31N 37°49' W 122°25'0 0.0
2017-Jan-16 15:31N 37°49' W 122°25'0 0.0
2017-Jan-16 14:31N 37°49' W 122°25'0 0.0
2017-Jan-16 13:31N 37°49' W 122°25'0 0.0
2017-Jan-16 12:32N 37°49' W 122°25'0 0.0
2017-Jan-16 11:31N 37°49' W 122°25'0 0.0
2017-Jan-16 10:32N 37°49' W 122°25'0 0.0
2017-Jan-16 09:31N 37°49' W 122°25'0 0.0
2017-Jan-16 08:31N 37°49' W 122°25'0 0.0
2017-Jan-16 07:31N 37°49' W 122°25'0 0.0
2017-Jan-16 06:31N 37°49' W 122°25'0 0.0
2017-Jan-16 05:32N 37°49' W 122°25'0 0.0
2017-Jan-16 04:31N 37°49' W 122°25'0 0.0
2017-Jan-16 03:31N 37°49' W 122°25'0 0.0
2017-Jan-16 02:31N 37°49' W 122°25'0 0.0
2017-Jan-16 01:31N 37°49' W 122°25'0 0.2
2017-Jan-16 00:33N 37°49' W 122°25'3 3.3
2017-Jan-15 23:34N 37°49' W 122°29'3 3.3
2017-Jan-15 22:33N 37°49' W 122°25'3 3.0
2017-Jan-15 21:33N 37°49' W 122°28'4 4.1
2017-Jan-15 20:33N 37°48' W 122°23'1 1.1
2017-Jan-15 19:33N 37°49' W 122°25'2 2.5
2017-Jan-15 18:34N 37°49' W 122°28'3 2.5
2017-Jan-15 17:34N 37°49' W 122°25'0 0.0
2017-Jan-15 02:33N 37°49' W 122°25'3 3.1
2017-Jan-15 01:33N 37°50' W 122°28'3 3.1
2017-Jan-15 00:33N 37°49' W 122°25'0 0.0
2017-Jan-14 23:33N 37°49' W 122°25'0 0.0
2017-Jan-14 22:33N 37°49' W 122°25'3 3.3
2017-Jan-14 21:33N 37°49' W 122°29'4 4.1
2017-Jan-14 20:33N 37°48' W 122°24'1 0.9
2017-Jan-14 19:33N 37°49' W 122°25'3 2.7
2017-Jan-14 18:33N 37°49' W 122°28'3 2.7
2017-Jan-14 17:33N 37°49' W 122°25'0 0.0
2017-Jan-14 16:33N 37°49' W 122°25'0 0.0
2017-Jan-14 15:33N 37°49' W 122°25'0 0.0
2017-Jan-14 14:33N 37°49' W 122°25'0 0.0
2017-Jan-14 13:33N 37°49' W 122°25'0 0.0
2017-Jan-14 12:33N 37°49' W 122°25'0 0.0
2017-Jan-14 11:33N 37°49' W 122°25'0 0.0
2017-Jan-14 10:33N 37°49' W 122°25'0 0.0
2017-Jan-14 09:33N 37°49' W 122°25'0 0.0
2017-Jan-14 08:33N 37°49' W 122°25'0 0.0
2017-Jan-14 07:33N 37°49' W 122°25'2 2.2
2017-Jan-14 06:33N 37°50' W 122°26'2 2.2
2017-Jan-14 05:33N 37°49' W 122°25'3 3.2
2017-Jan-14 04:33N 37°51' W 122°27'3 3.2
2017-Jan-14 03:33N 37°49' W 122°25'3 0.7
2017-Jan-13 23:33N 37°49' W 122°28'3 2.9
2017-Jan-13 22:33N 37°49' W 122°25'3 2.8
2017-Jan-13 21:33N 37°49' W 122°28'3 2.9
2017-Jan-13 20:33N 37°49' W 122°24'1 0.7
2017-Jan-13 19:34N 37°49' W 122°25'2 1.6
2017-Jan-13 18:34N 37°49' W 122°27'4 3.6
2017-Jan-13 17:34N 37°52' W 122°27'4 4.3
2017-Jan-13 16:33N 37°49' W 122°25'0 0.0
2017-Jan-13 15:32N 37°49' W 122°25'0 0.0
2017-Jan-13 14:32N 37°49' W 122°25'0 0.0
2017-Jan-13 13:32N 37°49' W 122°25'0 0.0
2017-Jan-13 12:32N 37°49' W 122°25'0 0.0
2017-Jan-13 11:32N 37°49' W 122°25'0 0.0
2017-Jan-13 10:32N 37°49' W 122°25'0 0.0
2017-Jan-13 09:32N 37°49' W 122°25'0 0.0
2017-Jan-13 08:32N 37°49' W 122°25'0 0.0
2017-Jan-13 07:32N 37°49' W 122°25'0 0.0
2017-Jan-13 06:32N 37°49' W 122°25'0 0.0
2017-Jan-13 05:32N 37°49' W 122°25'0 0.0
2017-Jan-13 04:32N 37°49' W 122°25'0 0.0
2017-Jan-13 03:32N 37°49' W 122°25'0 0.0
2017-Jan-13 02:32N 37°49' W 122°25'0 0.0
2017-Jan-13 01:32N 37°49' W 122°25'0 0.1
2017-Jan-13 00:34N 37°49' W 122°25'3 3.0
2017-Jan-12 23:33N 37°49' W 122°29'3 3.1
2017-Jan-12 22:33N 37°49' W 122°25'3 3.2
2017-Jan-12 21:33N 37°49' W 122°29'3 3.4
2017-Jan-12 20:33N 37°49' W 122°24'1 0.5
2017-Jan-12 19:33N 37°49' W 122°25'2 1.6
2017-Jan-12 18:33N 37°49' W 122°27'3 3.3
2017-Jan-12 17:33N 37°52' W 122°27'4 4.1
2017-Jan-12 16:34N 37°49' W 122°25'0 0.0
2017-Jan-12 15:31N 37°49' W 122°25'0 0.0
2017-Jan-12 14:31N 37°49' W 122°25'0 0.0
2017-Jan-12 13:31N 37°49' W 122°25'0 0.0
2017-Jan-12 12:31N 37°49' W 122°25'0 0.0
2017-Jan-12 11:31N 37°49' W 122°25'0 0.0
2017-Jan-12 10:31N 37°49' W 122°25'0 0.0
2017-Jan-12 09:31N 37°49' W 122°25'0 0.0
2017-Jan-12 08:31N 37°49' W 122°25'0 0.0
2017-Jan-12 07:31N 37°49' W 122°25'0 0.0
2017-Jan-12 06:31N 37°49' W 122°25'0 0.0
2017-Jan-12 05:31N 37°49' W 122°25'0 0.0
2017-Jan-12 04:31N 37°49' W 122°25'0 0.0
2017-Jan-12 03:31N 37°49' W 122°25'0 0.0
2017-Jan-12 02:31N 37°49' W 122°25'0 0.0
2017-Jan-12 01:31N 37°49' W 122°25'0 0.1
2017-Jan-12 00:33N 37°49' W 122°25'3 3.1
2017-Jan-11 23:33N 37°49' W 122°29'3 3.2
2017-Jan-11 22:33N 37°49' W 122°25'3 3.2
2017-Jan-11 21:34N 37°49' W 122°29'3 3.3
2017-Jan-11 20:34N 37°49' W 122°24'0 0.4
2017-Jan-11 19:34N 37°49' W 122°25'2 2.2
2017-Jan-11 18:34N 37°49' W 122°27'3 3.5
2017-Jan-11 17:34N 37°52' W 122°27'4 4.2
2017-Jan-11 16:34N 37°49' W 122°25'  
Track history (hours):
 
Tides and Currents Weather Stations Pressure Air Temp Water Temp Dewpoint Dewpoint Depression Visibility Wind Speed Wind Dir Waves Ship Positions

Harbor Emperor

Owner: BLUE & GOLD FLEET, SAN FRANCISCO, CA. More information available from US FCC via Universal Licensing System and Coast Guard Vessel Documentation Center.

Last reported at 2017-Jan-21 03:33 UTC. Time now 2017-Jan-21 04:21 UTC.
Position N 37°50' W 122°25'.

Length 31 m.

Type: Passenger vessel. MMSI: 366985270.

Date/timePositionNaut miles runAvg speedWind from/ knotsBaromVisibWave heightAir tempDewpointWater temp
2017-Jan-21 03:33N 37°50' W 122°25'2 2.2
2017-Jan-21 02:33N 37°48' W 122°24'1 1.2
2017-Jan-21 01:33N 37°49' W 122°25'0 0.1
2017-Jan-21 00:33N 37°49' W 122°25'3 2.8
2017-Jan-20 23:33N 37°49' W 122°28'3 2.8
2017-Jan-20 22:33N 37°49' W 122°25'2 2.2
2017-Jan-20 21:33N 37°49' W 122°27'2 2.2
2017-Jan-20 20:33N 37°49' W 122°25'1 0.7
2017-Jan-20 19:34N 37°49' W 122°25'3 2.7
2017-Jan-20 18:33N 37°49' W 122°28'3 3.5
2017-Jan-20 17:33N 37°52' W 122°27'4 4.3
2017-Jan-20 16:33N 37°49' W 122°25'3 0.3
2017-Jan-20 05:34N 37°48' W 122°20'2 1.6
2017-Jan-20 04:33N 37°48' W 122°23'2 2.3
2017-Jan-20 03:33N 37°49' W 122°25'2 1.9
2017-Jan-20 02:33N 37°48' W 122°24'1 1.2
2017-Jan-20 01:33N 37°49' W 122°25'0 0.2
2017-Jan-20 00:34N 37°49' W 122°25'2 2.4
2017-Jan-19 23:34N 37°49' W 122°28'3 2.5
2017-Jan-19 22:33N 37°49' W 122°25'3 2.6
2017-Jan-19 21:33N 37°49' W 122°28'3 3.0
2017-Jan-19 20:34N 37°49' W 122°24'1 0.6
2017-Jan-19 19:34N 37°49' W 122°25'2 2.5
2017-Jan-19 18:34N 37°49' W 122°28'3 3.5
2017-Jan-19 17:33N 37°52' W 122°27'4 4.2
2017-Jan-19 16:34N 37°49' W 122°25'0 0.2
2017-Jan-19 15:33N 37°49' W 122°25'0 0.0
2017-Jan-19 14:33N 37°49' W 122°25'0 0.0
2017-Jan-19 13:33N 37°49' W 122°25'0 0.0
2017-Jan-19 12:33N 37°49' W 122°25'0 0.0
2017-Jan-19 11:33N 37°49' W 122°25'0 0.0
2017-Jan-19 10:33N 37°49' W 122°25'0 0.0
2017-Jan-19 09:33N 37°49' W 122°25'0 0.0
2017-Jan-19 08:33N 37°49' W 122°25'0 0.0
2017-Jan-19 07:33N 37°49' W 122°25'0 0.0
2017-Jan-19 06:33N 37°49' W 122°25'0 0.0
2017-Jan-19 05:33N 37°49' W 122°25'0 0.0
2017-Jan-19 04:33N 37°49' W 122°25'0 0.0
2017-Jan-19 03:33N 37°49' W 122°25'0 0.0
2017-Jan-19 02:33N 37°49' W 122°25'0 0.0
2017-Jan-19 01:33N 37°49' W 122°25'0 0.0
2017-Jan-19 00:33N 37°49' W 122°25'3 2.8
2017-Jan-18 23:33N 37°49' W 122°28'3 2.8
2017-Jan-18 22:33N 37°49' W 122°25'2 2.5
2017-Jan-18 21:33N 37°49' W 122°28'3 3.0
2017-Jan-18 20:33N 37°49' W 122°24'1 0.6
2017-Jan-18 19:34N 37°49' W 122°25'3 2.6
2017-Jan-18 18:33N 37°49' W 122°28'3 3.4
2017-Jan-18 17:33N 37°52' W 122°27'4 4.3
2017-Jan-18 16:33N 37°49' W 122°25'0 0.0
2017-Jan-18 01:30N 37°49' W 122°25'0 0.2
2017-Jan-18 00:33N 37°49' W 122°25'3 2.9
2017-Jan-17 23:33N 37°49' W 122°28'3 3.0
2017-Jan-17 22:33N 37°49' W 122°25'3 2.6
2017-Jan-17 21:33N 37°49' W 122°28'3 3.1
2017-Jan-17 20:33N 37°49' W 122°24'0 0.5
2017-Jan-17 19:34N 37°49' W 122°25'3 2.7
2017-Jan-17 18:33N 37°49' W 122°28'4 3.6
2017-Jan-17 17:33N 37°52' W 122°27'4 4.2
2017-Jan-17 16:33N 37°49' W 122°25'0 0.0
2017-Jan-17 01:31N 37°49' W 122°25'0 0.0
2017-Jan-17 00:34N 37°49' W 122°25'3 2.6
2017-Jan-16 23:33N 37°49' W 122°28'3 2.6
2017-Jan-16 22:33N 37°49' W 122°25'2 2.4
2017-Jan-16 21:33N 37°49' W 122°28'4 3.7
2017-Jan-16 20:33N 37°48' W 122°23'1 1.3
2017-Jan-16 19:33N 37°49' W 122°25'2 2.3
2017-Jan-16 18:33N 37°49' W 122°28'2 2.3
2017-Jan-16 17:32N 37°49' W 122°25'0 0.0
2017-Jan-16 16:31N 37°49' W 122°25'0 0.0
2017-Jan-16 15:31N 37°49' W 122°25'0 0.0
2017-Jan-16 14:31N 37°49' W 122°25'0 0.0
2017-Jan-16 13:31N 37°49' W 122°25'0 0.0
2017-Jan-16 12:32N 37°49' W 122°25'0 0.0
2017-Jan-16 11:31N 37°49' W 122°25'0 0.0
2017-Jan-16 10:32N 37°49' W 122°25'0 0.0
2017-Jan-16 09:31N 37°49' W 122°25'0 0.0
2017-Jan-16 08:31N 37°49' W 122°25'0 0.0
2017-Jan-16 07:31N 37°49' W 122°25'0 0.0
2017-Jan-16 06:31N 37°49' W 122°25'0 0.0
2017-Jan-16 05:32N 37°49' W 122°25'0 0.0
2017-Jan-16 04:31N 37°49' W 122°25'0 0.0
2017-Jan-16 03:31N 37°49' W 122°25'0 0.0
2017-Jan-16 02:31N 37°49' W 122°25'0 0.0
2017-Jan-16 01:31N 37°49' W 122°25'0 0.2
2017-Jan-16 00:33N 37°49' W 122°25'3 3.3
2017-Jan-15 23:34N 37°49' W 122°29'3 3.3
2017-Jan-15 22:33N 37°49' W 122°25'3 3.0
2017-Jan-15 21:33N 37°49' W 122°28'4 4.1
2017-Jan-15 20:33N 37°48' W 122°23'1 1.1
2017-Jan-15 19:33N 37°49' W 122°25'2 2.5
2017-Jan-15 18:34N 37°49' W 122°28'3 2.5
2017-Jan-15 17:34N 37°49' W 122°25'0 0.0
2017-Jan-15 02:33N 37°49' W 122°25'3 3.1
2017-Jan-15 01:33N 37°50' W 122°28'3 3.1
2017-Jan-15 00:33N 37°49' W 122°25'0 0.0
2017-Jan-14 23:33N 37°49' W 122°25'0 0.0
2017-Jan-14 22:33N 37°49' W 122°25'3 3.3
2017-Jan-14 21:33N 37°49' W 122°29'4 4.1
2017-Jan-14 20:33N 37°48' W 122°24'1 0.9
2017-Jan-14 19:33N 37°49' W 122°25'3 2.7
2017-Jan-14 18:33N 37°49' W 122°28'3 2.7
2017-Jan-14 17:33N 37°49' W 122°25'0 0.0
2017-Jan-14 16:33N 37°49' W 122°25'0 0.0
2017-Jan-14 15:33N 37°49' W 122°25'0 0.0
2017-Jan-14 14:33N 37°49' W 122°25'0 0.0
2017-Jan-14 13:33N 37°49' W 122°25'0 0.0
2017-Jan-14 12:33N 37°49' W 122°25'0 0.0
2017-Jan-14 11:33N 37°49' W 122°25'0 0.0
2017-Jan-14 10:33N 37°49' W 122°25'0 0.0
2017-Jan-14 09:33N 37°49' W 122°25'0 0.0
2017-Jan-14 08:33N 37°49' W 122°25'0 0.0
2017-Jan-14 07:33N 37°49' W 122°25'2 2.2
2017-Jan-14 06:33N 37°50' W 122°26'2 2.2
2017-Jan-14 05:33N 37°49' W 122°25'3 3.2
2017-Jan-14 04:33N 37°51' W 122°27'3 3.2
2017-Jan-14 03:33N 37°49' W 122°25'3 0.7
2017-Jan-13 23:33N 37°49' W 122°28'3 2.9
2017-Jan-13 22:33N 37°49' W 122°25'3 2.8
2017-Jan-13 21:33N 37°49' W 122°28'3 2.9
2017-Jan-13 20:33N 37°49' W 122°24'1 0.7
2017-Jan-13 19:34N 37°49' W 122°25'2 1.6
2017-Jan-13 18:34N 37°49' W 122°27'4 3.6
2017-Jan-13 17:34N 37°52' W 122°27'4 4.3
2017-Jan-13 16:33N 37°49' W 122°25'0 0.0
2017-Jan-13 15:32N 37°49' W 122°25'0 0.0
2017-Jan-13 14:32N 37°49' W 122°25'0 0.0
2017-Jan-13 13:32N 37°49' W 122°25'0 0.0
2017-Jan-13 12:32N 37°49' W 122°25'0 0.0
2017-Jan-13 11:32N 37°49' W 122°25'0 0.0
2017-Jan-13 10:32N 37°49' W 122°25'0 0.0
2017-Jan-13 09:32N 37°49' W 122°25'0 0.0
2017-Jan-13 08:32N 37°49' W 122°25'0 0.0
2017-Jan-13 07:32N 37°49' W 122°25'0 0.0
2017-Jan-13 06:32N 37°49' W 122°25'0 0.0
2017-Jan-13 05:32N 37°49' W 122°25'0 0.0
2017-Jan-13 04:32N 37°49' W 122°25'0 0.0
2017-Jan-13 03:32N 37°49' W 122°25'0 0.0
2017-Jan-13 02:32N 37°49' W 122°25'0 0.0
2017-Jan-13 01:32N 37°49' W 122°25'0 0.1
2017-Jan-13 00:34N 37°49' W 122°25'3 3.0
2017-Jan-12 23:33N 37°49' W 122°29'3 3.1
2017-Jan-12 22:33N 37°49' W 122°25'3 3.2
2017-Jan-12 21:33N 37°49' W 122°29'3 3.4
2017-Jan-12 20:33N 37°49' W 122°24'1 0.5
2017-Jan-12 19:33N 37°49' W 122°25'2 1.6
2017-Jan-12 18:33N 37°49' W 122°27'3 3.3
2017-Jan-12 17:33N 37°52' W 122°27'4 4.1
2017-Jan-12 16:34N 37°49' W 122°25'0 0.0
2017-Jan-12 15:31N 37°49' W 122°25'0 0.0
2017-Jan-12 14:31N 37°49' W 122°25'0 0.0
2017-Jan-12 13:31N 37°49' W 122°25'0 0.0
2017-Jan-12 12:31N 37°49' W 122°25'0 0.0
2017-Jan-12 11:31N 37°49' W 122°25'0 0.0
2017-Jan-12 10:31N 37°49' W 122°25'0 0.0
2017-Jan-12 09:31N 37°49' W 122°25'0 0.0
2017-Jan-12 08:31N 37°49' W 122°25'0 0.0
2017-Jan-12 07:31N 37°49' W 122°25'0 0.0
2017-Jan-12 06:31N 37°49' W 122°25'0 0.0
2017-Jan-12 05:31N 37°49' W 122°25'0 0.0
2017-Jan-12 04:31N 37°49' W 122°25'0 0.0
2017-Jan-12 03:31N 37°49' W 122°25'0 0.0
2017-Jan-12 02:31N 37°49' W 122°25'0 0.0
2017-Jan-12 01:31N 37°49' W 122°25'0 0.1
2017-Jan-12 00:33N 37°49' W 122°25'3 3.1
2017-Jan-11 23:33N 37°49' W 122°29'3 3.2
2017-Jan-11 22:33N 37°49' W 122°25'3 3.2
2017-Jan-11 21:34N 37°49' W 122°29'3 3.3
2017-Jan-11 20:34N 37°49' W 122°24'0 0.4
2017-Jan-11 19:34N 37°49' W 122°25'2 2.2
2017-Jan-11 18:34N 37°49' W 122°27'3 3.5
2017-Jan-11 17:34N 37°52' W 122°27'4 4.2
2017-Jan-11 16:34N 37°49' W 122°25'  

Dump ship's entire track history